Time;durP1;ratioP1;P1;durP2;ratioP2;P2;SDS_P1;SDS_P2;PMS_P1;PMS_P2;Temp;Humidity;BMP_temperature;BMP_pressure;BME280_temperature;BME280_humidity;BME280_pressure;Samples;Min_cycle;Max_cycle;Signal;HPM_P1;HPM_P2
2022/12/15 00:40:32;;;;;;;52.90;22.03;;;;;;;;;;6215639;23;20191;-91
2022/12/15 00:46:59;;;;;;;58.93;22.87;;;;;;;;;;6233516;23;20170;-89
2022/12/15 01:20:35;;;;;;;57.33;22.03;;;;;;;;;;6215470;23;20176;-90
2022/12/15 01:23:41;;;;;;;58.43;21.60;;;;;;;;;;6215141;23;20195;-88
2022/12/15 01:26:48;;;;;;;52.33;21.70;;;;;;;;;;6214120;23;20163;-89
2022/12/15 01:29:53;;;;;;;50.77;20.13;;;;;;;;;;6214402;23;20195;-91
2022/12/15 01:32:58;;;;;;;50.93;20.97;;;;;;;;;;6213700;23;20171;-88
2022/12/15 01:36:04;;;;;;;49.13;20.97;;;;;;;;;;6215104;22;20167;-88
2022/12/15 01:39:09;;;;;;;48.73;21.03;;;;;;;;;;6213774;23;20162;-87
2022/12/15 01:42:16;;;;;;;48.47;19.10;;;;;;;;;;6215480;23;20151;-88
2022/12/15 01:45:39;;;;;;;46.73;20.00;;;;;;;;;;6214725;23;20167;-91
2022/12/15 01:48:47;;;;;;;50.10;20.87;;;;;;;;;;6213101;22;20167;-87
2022/12/15 01:51:53;;;;;;;54.90;21.10;;;;;;;;;;6214007;22;20214;-90
2022/12/15 01:54:59;;;;;;;54.70;21.87;;;;;;;;;;6211986;23;20167;-89
2022/12/15 01:58:07;;;;;;;58.17;22.47;;;;;;;;;;6213131;23;20191;-90
2022/12/15 02:01:12;;;;;;;48.73;21.53;;;;;;;;;;6210991;23;20238;-92
2022/12/15 02:04:19;;;;;;;54.13;22.20;;;;;;;;;;6211777;22;20232;-88
2022/12/15 02:07:24;;;;;;;55.83;22.80;;;;;;;;;;6213826;23;20146;-89
2022/12/15 02:10:33;;;;;;;54.30;23.10;;;;;;;;;;6212733;23;20248;-89
2022/12/15 02:13:45;;;;;;;61.03;23.17;;;;;;;;;;6213749;23;20506;-89
2022/12/15 02:16:58;;;;;;;53.17;21.63;;;;;;;;;;6212070;23;20234;-86
2022/12/15 02:20:26;;;;;;;56.33;23.33;;;;;;;;;;6212919;22;20166;-86
2022/12/15 02:23:45;;;;;;;57.37;24.10;;;;;;;;;;6212159;23;20190;-89
2022/12/15 02:27:10;;;;;;;60.10;23.73;;;;;;;;;;6214615;22;20164;-88
2022/12/15 02:30:25;;;;;;;56.43;23.10;;;;;;;;;;6230381;23;20191;-88
2022/12/15 02:33:32;;;;;;;61.47;23.67;;;;;;;;;;6213883;22;20531;-90
2022/12/15 02:36:39;;;;;;;49.67;21.47;;;;;;;;;;6213797;22;20163;-88
2022/12/15 02:39:44;;;;;;;55.13;21.80;;;;;;;;;;6212387;23;20163;-89
2022/12/15 02:43:17;;;;;;;54.57;22.60;;;;;;;;;;6212429;23;20191;-89
2022/12/15 02:46:30;;;;;;;53.60;22.73;;;;;;;;;;6215131;22;20151;-89
2022/12/15 02:49:40;;;;;;;56.00;22.57;;;;;;;;;;6214781;22;20184;-88
2022/12/15 02:52:51;;;;;;;54.33;22.60;;;;;;;;;;6214921;22;20186;-89
2022/12/15 02:55:59;;;;;;;50.13;20.93;;;;;;;;;;6214152;23;20641;-88
2022/12/15 02:59:09;;;;;;;54.13;21.97;;;;;;;;;;6214682;23;20191;-87
2022/12/15 03:02:16;;;;;;;54.93;22.60;;;;;;;;;;6214318;22;20171;-90
2022/12/15 03:05:22;;;;;;;54.90;22.30;;;;;;;;;;6213805;22;20151;-88
2022/12/15 03:08:27;;;;;;;57.63;23.73;;;;;;;;;;6213922;23;20171;-92
2022/12/15 03:11:32;;;;;;;53.27;21.70;;;;;;;;;;6210828;23;20210;-87
2022/12/15 03:14:37;;;;;;;53.93;22.13;;;;;;;;;;6211054;23;20198;-88
2022/12/15 03:17:44;;;;;;;51.97;21.03;;;;;;;;;;6211702;22;20167;-88
2022/12/15 03:20:51;;;;;;;52.83;21.87;;;;;;;;;;6213680;22;20513;-89
2022/12/15 03:23:56;;;;;;;54.13;21.97;;;;;;;;;;6212576;23;20217;-90
2022/12/15 03:27:01;;;;;;;55.83;22.73;;;;;;;;;;6211596;23;20244;-89
2022/12/15 03:30:08;;;;;;;45.50;19.53;;;;;;;;;;6211739;23;20183;-88
2022/12/15 03:33:14;;;;;;;52.67;21.87;;;;;;;;;;6212151;22;20147;-90
2022/12/15 03:36:21;;;;;;;56.17;23.00;;;;;;;;;;6212427;23;20171;-92
2022/12/15 03:39:27;;;;;;;57.87;22.17;;;;;;;;;;6212692;23;20715;-89
2022/12/15 03:42:50;;;;;;;56.33;22.80;;;;;;;;;;6230739;22;20213;-88
2022/12/15 03:45:55;;;;;;;58.77;22.87;;;;;;;;;;6212847;22;20186;-89
2022/12/15 03:49:01;;;;;;;58.37;24.10;;;;;;;;;;6211132;23;20174;-93
2022/12/15 03:52:07;;;;;;;58.17;23.67;;;;;;;;;;6214353;23;20235;-91
2022/12/15 03:55:14;;;;;;;53.63;23.17;;;;;;;;;;6213900;22;20241;-89
2022/12/15 03:58:20;;;;;;;64.60;23.80;;;;;;;;;;6211865;23;20720;-87
2022/12/15 04:01:28;;;;;;;56.53;23.10;;;;;;;;;;6213039;22;20170;-90
2022/12/15 04:04:34;;;;;;;57.60;23.40;;;;;;;;;;6214919;22;20155;-91
2022/12/15 04:07:39;;;;;;;56.27;23.13;;;;;;;;;;6215144;23;20602;-89
2022/12/15 04:10:45;;;;;;;59.70;23.90;;;;;;;;;;6215050;23;20198;-90
2022/12/15 04:13:50;;;;;;;60.07;23.57;;;;;;;;;;6212519;23;20175;-92
2022/12/15 04:16:55;;;;;;;58.63;23.83;;;;;;;;;;6212203;22;20167;-90
2022/12/15 04:20:11;;;;;;;71.23;25.00;;;;;;;;;;6212131;22;20175;-91
2022/12/15 04:23:17;;;;;;;57.07;24.23;;;;;;;;;;6213261;23;20291;-91
2022/12/15 05:34:21;;;;;;;58.53;23.50;;;;;;;;;;6210391;23;20162;-88
2022/12/15 05:37:26;;;;;;;56.33;23.70;;;;;;;;;;6209220;23;20168;-87
2022/12/15 05:40:31;;;;;;;64.10;24.50;;;;;;;;;;6210503;23;20158;-90
2022/12/15 05:43:38;;;;;;;59.10;23.53;;;;;;;;;;6210295;22;20172;-89
2022/12/15 05:46:43;;;;;;;66.53;25.50;;;;;;;;;;6211742;23;20163;-90
2022/12/15 05:49:49;;;;;;;66.30;23.90;;;;;;;;;;6214899;23;20151;-88
2022/12/15 05:52:55;;;;;;;58.53;24.63;;;;;;;;;;6209877;23;20163;-87
2022/12/15 05:56:02;;;;;;;61.20;24.13;;;;;;;;;;6212934;22;20178;-90
2022/12/15 05:59:09;;;;;;;58.70;24.33;;;;;;;;;;6208973;22;20191;-90
2022/12/15 06:02:14;;;;;;;61.03;24.70;;;;;;;;;;6212444;23;20206;-88
2022/12/15 06:05:20;;;;;;;61.57;24.10;;;;;;;;;;6210707;22;20194;-91
2022/12/15 06:08:25;;;;;;;68.60;25.03;;;;;;;;;;6208192;23;20216;-88
2022/12/15 06:11:30;;;;;;;79.77;29.87;;;;;;;;;;6210465;22;20191;-89
2022/12/15 06:14:36;;;;;;;73.03;27.23;;;;;;;;;;6208919;22;20167;-88
2022/12/15 06:17:42;;;;;;;71.70;25.80;;;;;;;;;;6211947;22;20155;-90
2022/12/15 06:20:47;;;;;;;65.40;25.20;;;;;;;;;;6213804;22;20297;-88
2022/12/15 06:23:53;;;;;;;62.57;25.40;;;;;;;;;;6209129;23;20191;-88
2022/12/15 06:26:58;;;;;;;64.23;24.70;;;;;;;;;;6208243;22;20199;-89
2022/12/15 06:30:05;;;;;;;72.33;24.67;;;;;;;;;;6209509;23;20244;-89
2022/12/15 06:33:10;;;;;;;69.20;24.77;;;;;;;;;;6211034;23;20186;-90
2022/12/15 06:36:16;;;;;;;68.37;25.73;;;;;;;;;;6216461;23;20171;-87
2022/12/15 06:39:21;;;;;;;63.43;23.67;;;;;;;;;;6211516;23;20170;-89
2022/12/15 06:42:27;;;;;;;68.17;25.43;;;;;;;;;;6210524;23;20159;-89
2022/12/15 06:45:34;;;;;;;68.57;25.43;;;;;;;;;;6211513;22;20151;-88
2022/12/15 06:48:41;;;;;;;68.73;26.97;;;;;;;;;;6211362;22;20167;-88
2022/12/15 06:51:46;;;;;;;72.20;26.40;;;;;;;;;;6210774;23;20266;-89
2022/12/15 06:54:52;;;;;;;65.00;25.77;;;;;;;;;;6212507;23;20211;-87
2022/12/15 06:57:57;;;;;;;63.13;25.53;;;;;;;;;;6211009;23;20163;-91
2022/12/15 07:01:07;;;;;;;66.90;25.07;;;;;;;;;;6213281;23;20527;-90
2022/12/15 07:04:12;;;;;;;64.50;26.30;;;;;;;;;;6209475;22;20168;-88
2022/12/15 07:07:17;;;;;;;66.87;26.10;;;;;;;;;;6227905;22;20175;-88
2022/12/15 07:10:23;;;;;;;76.73;28.97;;;;;;;;;;6211718;23;20163;-89
2022/12/15 07:13:28;;;;;;;71.30;26.87;;;;;;;;;;6208457;23;20222;-90
2022/12/15 07:16:34;;;;;;;70.20;28.23;;;;;;;;;;6209443;22;20201;-89
2022/12/15 07:19:39;;;;;;;59.37;26.03;;;;;;;;;;6209382;22;20167;-92
2022/12/15 07:22:44;;;;;;;66.10;25.90;;;;;;;;;;6210327;23;20166;-91
2022/12/15 07:25:52;;;;;;;70.07;26.37;;;;;;;;;;6210230;23;20657;-87
2022/12/15 07:28:57;;;;;;;60.07;25.53;;;;;;;;;;6211766;23;20492;-92
2022/12/15 07:32:04;;;;;;;64.03;25.73;;;;;;;;;;6229566;22;20206;-89
2022/12/15 07:35:10;;;;;;;67.93;26.97;;;;;;;;;;6212458;23;20837;-90
2022/12/15 07:38:15;;;;;;;71.40;26.77;;;;;;;;;;6213531;23;20195;-90
2022/12/15 07:41:20;;;;;;;64.87;24.70;;;;;;;;;;6212573;23;20267;-90
2022/12/15 07:44:26;;;;;;;69.20;25.13;;;;;;;;;;6213194;23;20226;-91
2022/12/15 07:47:33;;;;;;;68.87;25.30;;;;;;;;;;6211838;23;20174;-89
2022/12/15 07:50:39;;;;;;;73.40;28.70;;;;;;;;;;6210722;23;20231;-92
2022/12/15 07:53:44;;;;;;;75.03;27.27;;;;;;;;;;6210535;23;20167;-91
2022/12/15 07:56:50;;;;;;;76.67;30.63;;;;;;;;;;6211864;22;20174;-90
2022/12/15 07:59:55;;;;;;;69.17;25.83;;;;;;;;;;6212754;23;20191;-88
2022/12/15 08:03:03;;;;;;;68.27;27.03;;;;;;;;;;6213253;23;20214;-87
2022/12/15 08:06:10;;;;;;;74.13;31.30;;;;;;;;;;6212717;22;20162;-89
2022/12/15 08:09:15;;;;;;;71.00;26.27;;;;;;;;;;6211682;22;20166;-90
2022/12/15 08:12:20;;;;;;;70.80;26.00;;;;;;;;;;6211917;22;20694;-90
2022/12/15 08:15:29;;;;;;;61.20;24.53;;;;;;;;;;6212994;23;20170;-88
2022/12/15 08:18:39;;;;;;;75.47;27.07;;;;;;;;;;6212293;23;20207;-88
2022/12/15 08:21:46;;;;;;;67.77;25.03;;;;;;;;;;6213864;22;20169;-90
2022/12/15 08:24:52;;;;;;;65.80;25.07;;;;;;;;;;6230083;22;20170;-89
2022/12/15 08:27:57;;;;;;;83.37;28.77;;;;;;;;;;6213272;23;20166;-90
2022/12/15 08:31:06;;;;;;;78.87;29.40;;;;;;;;;;6212965;23;20236;-90
2022/12/15 08:34:12;;;;;;;86.47;31.43;;;;;;;;;;6213160;23;20171;-91
2022/12/15 08:37:18;;;;;;;62.73;25.23;;;;;;;;;;6212682;23;20166;-90
2022/12/15 08:40:24;;;;;;;73.90;28.83;;;;;;;;;;6210777;22;20167;-90
2022/12/15 08:43:31;;;;;;;83.27;30.53;;;;;;;;;;6211027;23;20675;-92
2022/12/15 08:46:36;;;;;;;64.07;24.43;;;;;;;;;;6211884;23;20261;-90
2022/12/15 08:49:43;;;;;;;66.97;25.90;;;;;;;;;;6213099;23;20167;-90
2022/12/15 08:52:48;;;;;;;58.53;24.23;;;;;;;;;;6215638;22;20190;-90
2022/12/15 08:55:53;;;;;;;60.63;24.37;;;;;;;;;;6213751;23;20248;-92
2022/12/15 08:58:59;;;;;;;78.33;26.93;;;;;;;;;;6215722;22;20211;-90
2022/12/15 09:02:04;;;;;;;63.87;25.53;;;;;;;;;;6217560;22;20218;-90
2022/12/15 09:05:27;;;;;;;59.93;23.70;;;;;;;;;;6214455;23;20163;-88
2022/12/15 09:08:35;;;;;;;65.73;26.20;;;;;;;;;;6232789;23;20172;-90
2022/12/15 09:11:40;;;;;;;90.70;32.43;;;;;;;;;;6212987;22;20238;-89
2022/12/15 09:14:45;;;;;;;71.17;28.00;;;;;;;;;;6212715;22;20282;-92
2022/12/15 09:17:50;;;;;;;92.90;29.17;;;;;;;;;;6212267;23;20184;-90
2022/12/15 09:20:56;;;;;;;75.27;28.60;;;;;;;;;;6212305;23;20163;-91
2022/12/15 09:24:03;;;;;;;80.10;29.47;;;;;;;;;;6213299;23;20170;-88
2022/12/15 09:27:09;;;;;;;62.50;26.97;;;;;;;;;;6213329;23;20217;-89
2022/12/15 09:30:14;;;;;;;66.20;26.10;;;;;;;;;;6213151;22;20217;-90
2022/12/15 09:33:19;;;;;;;65.27;24.50;;;;;;;;;;6215037;23;20199;-90
2022/12/15 09:36:24;;;;;;;79.50;27.37;;;;;;;;;;6215025;23;20241;-90
2022/12/15 09:39:32;;;;;;;65.37;26.60;;;;;;;;;;6213999;23;20295;-89
2022/12/15 09:43:05;;;;;;;76.27;26.93;;;;;;;;;;6211976;23;20235;-90
2022/12/15 09:46:16;;;;;;;65.47;25.60;;;;;;;;;;6213809;22;20855;-90
2022/12/15 09:49:26;;;;;;;61.07;25.43;;;;;;;;;;6211989;23;20171;-90
2022/12/15 09:52:33;;;;;;;64.17;26.00;;;;;;;;;;6211020;23;20198;-90
2022/12/15 09:55:41;;;;;;;64.47;25.77;;;;;;;;;;6210242;23;20641;-89
2022/12/15 09:58:57;;;;;;;73.37;26.73;;;;;;;;;;6213039;22;20174;-91
2022/12/15 10:02:13;;;;;;;74.73;27.87;;;;;;;;;;6214116;23;20171;-88
2022/12/15 10:05:23;;;;;;;95.53;33.57;;;;;;;;;;6213609;23;20167;-90
2022/12/15 10:08:30;;;;;;;69.40;28.90;;;;;;;;;;6214069;23;20159;-91
2022/12/15 10:11:47;;;;;;;71.53;27.73;;;;;;;;;;6213568;22;20155;-92
2022/12/15 10:14:56;;;;;;;70.23;26.53;;;;;;;;;;6214857;22;20183;-87
2022/12/15 10:18:03;;;;;;;64.57;26.90;;;;;;;;;;6212965;23;20175;-89
2022/12/15 10:21:12;;;;;;;62.57;25.63;;;;;;;;;;6214396;23;20182;-89
2022/12/15 10:24:18;;;;;;;73.93;27.50;;;;;;;;;;6212065;23;20556;-91
2022/12/15 10:27:32;;;;;;;70.00;26.53;;;;;;;;;;6228810;23;20212;-91
2022/12/15 10:30:40;;;;;;;66.47;25.03;;;;;;;;;;6212409;22;20171;-89
2022/12/15 10:33:48;;;;;;;62.60;26.17;;;;;;;;;;6212862;23;20198;-88
2022/12/15 10:36:55;;;;;;;69.93;27.30;;;;;;;;;;6216763;23;20259;-89
2022/12/15 10:40:00;;;;;;;63.03;26.40;;;;;;;;;;6212873;23;20614;-89
2022/12/15 10:43:13;;;;;;;64.30;25.70;;;;;;;;;;6212567;23;20170;-90
2022/12/15 10:46:20;;;;;;;75.73;28.30;;;;;;;;;;6213106;23;20210;-89
2022/12/15 10:49:26;;;;;;;68.43;27.97;;;;;;;;;;6214047;23;20179;-90
2022/12/15 10:52:33;;;;;;;68.50;28.10;;;;;;;;;;6217371;22;20194;-89
2022/12/15 10:55:40;;;;;;;67.10;26.60;;;;;;;;;;6217190;22;20170;-91
2022/12/15 10:58:52;;;;;;;67.07;25.20;;;;;;;;;;6231776;23;20191;-92
2022/12/15 11:01:57;;;;;;;57.57;22.40;;;;;;;;;;6215883;23;20170;-89
2022/12/15 11:05:05;;;;;;;73.73;24.87;;;;;;;;;;6217916;23;20159;-90
2022/12/15 11:08:15;;;;;;;68.50;25.57;;;;;;;;;;6216421;22;20186;-89
2022/12/15 11:14:52;;;;;;;64.03;25.73;;;;;;;;;;6214568;23;20154;-92
2022/12/15 11:18:09;;;;;;;65.07;25.70;;;;;;;;;;6217039;23;20183;-90
2022/12/15 11:21:20;;;;;;;66.93;26.77;;;;;;;;;;6234563;22;20721;-93
2022/12/15 11:24:30;;;;;;;67.90;27.90;;;;;;;;;;6214772;22;20200;-90
2022/12/15 11:27:37;;;;;;;53.63;23.80;;;;;;;;;;6212977;23;20618;-89
2022/12/15 11:30:46;;;;;;;64.77;26.37;;;;;;;;;;6215964;23;20171;-91
2022/12/15 11:33:52;;;;;;;69.07;26.53;;;;;;;;;;6218361;23;20202;-90
2022/12/15 11:37:03;;;;;;;67.90;26.90;;;;;;;;;;6218106;22;20175;-90
2022/12/15 11:40:24;;;;;;;73.80;27.90;;;;;;;;;;6218210;23;20172;-90
2022/12/15 11:43:40;;;;;;;66.23;26.73;;;;;;;;;;6214763;23;20171;-90
2022/12/15 11:46:52;;;;;;;68.80;28.50;;;;;;;;;;6216271;23;20211;-90
2022/12/15 11:50:21;;;;;;;65.63;27.27;;;;;;;;;;6214337;22;20175;-90
2022/12/15 11:53:41;;;;;;;70.67;28.37;;;;;;;;;;6213975;22;20210;-90
2022/12/15 11:56:48;;;;;;;69.20;27.93;;;;;;;;;;6233246;22;20175;-90
2022/12/15 11:59:57;;;;;;;67.20;28.43;;;;;;;;;;6213189;23;20202;-88
2022/12/15 12:03:12;;;;;;;64.97;27.60;;;;;;;;;;6215726;22;20150;-88
2022/12/15 12:06:20;;;;;;;70.53;28.57;;;;;;;;;;6217468;22;20167;-87
2022/12/15 12:09:29;;;;;;;76.80;28.97;;;;;;;;;;6217258;23;20171;-89
2022/12/15 12:12:39;;;;;;;78.10;29.13;;;;;;;;;;6216294;23;20195;-88
2022/12/15 12:15:49;;;;;;;64.87;27.50;;;;;;;;;;6215897;23;20155;-88
2022/12/15 12:19:02;;;;;;;73.10;28.63;;;;;;;;;;6215679;22;20151;-90
2022/12/15 12:22:12;;;;;;;68.37;28.13;;;;;;;;;;6216457;22;20167;-89
2022/12/15 12:25:19;;;;;;;68.20;27.77;;;;;;;;;;6217679;23;20168;-88
2022/12/15 12:28:29;;;;;;;72.90;29.10;;;;;;;;;;6219014;23;20288;-89
2022/12/15 12:31:42;;;;;;;68.93;27.40;;;;;;;;;;6216948;22;20155;-90
2022/12/15 12:34:55;;;;;;;70.13;28.23;;;;;;;;;;6216839;22;20224;-87
2022/12/15 12:38:02;;;;;;;70.23;26.07;;;;;;;;;;6217425;23;20214;-89
2022/12/15 12:41:08;;;;;;;68.57;27.80;;;;;;;;;;6219564;23;20159;-89
2022/12/15 12:44:17;;;;;;;65.67;28.03;;;;;;;;;;6218433;23;20171;-90
2022/12/15 12:50:46;;;;;;;74.00;29.70;;;;;;;;;;6217872;22;20178;-89
2022/12/15 12:57:30;;;;;;;73.20;29.27;;;;;;;;;;6215723;23;20283;-91
2022/12/15 13:00:36;;;;;;;73.57;28.50;;;;;;;;;;6214181;22;20151;-89
2022/12/15 13:07:05;;;;;;;70.57;28.63;;;;;;;;;;6215815;23;20164;-92
2022/12/15 13:10:14;;;;;;;74.63;29.03;;;;;;;;;;6213423;23;20171;-91
2022/12/15 13:13:34;;;;;;;70.50;29.23;;;;;;;;;;6214159;23;20308;-89
2022/12/15 13:16:39;;;;;;;70.83;27.43;;;;;;;;;;6233759;22;20155;-91
2022/12/15 13:20:04;;;;;;;70.17;28.43;;;;;;;;;;6213315;23;20187;-92
2022/12/15 13:23:28;;;;;;;78.13;29.63;;;;;;;;;;6214075;23;20199;-93
2022/12/15 13:26:35;;;;;;;74.77;28.93;;;;;;;;;;6230495;22;20155;-91
2022/12/15 13:29:56;;;;;;;69.00;28.50;;;;;;;;;;6211380;23;20167;-87
2022/12/15 13:33:14;;;;;;;74.93;27.87;;;;;;;;;;6214517;23;20310;-89
2022/12/15 13:36:34;;;;;;;68.17;28.03;;;;;;;;;;6214801;23;20163;-89
2022/12/15 13:39:55;;;;;;;67.40;28.17;;;;;;;;;;6215140;23;20171;-90
2022/12/15 13:47:24;;;;;;;72.43;27.73;;;;;;;;;;6233717;23;20207;-89
2022/12/15 13:50:39;;;;;;;75.80;29.57;;;;;;;;;;6216067;23;20151;-92
2022/12/15 13:53:52;;;;;;;76.80;29.93;;;;;;;;;;6218256;23;20278;-87
2022/12/15 13:57:03;;;;;;;74.93;30.03;;;;;;;;;;6216702;23;20272;-90
2022/12/15 14:00:17;;;;;;;73.77;28.43;;;;;;;;;;6215966;22;20189;-91
2022/12/15 14:03:24;;;;;;;76.90;30.87;;;;;;;;;;6217357;22;20175;-91
2022/12/15 14:06:32;;;;;;;81.60;32.27;;;;;;;;;;6214919;23;20207;-89
2022/12/15 14:09:39;;;;;;;73.93;30.67;;;;;;;;;;6215150;23;20174;-89
2022/12/15 14:12:45;;;;;;;85.47;33.20;;;;;;;;;;6214159;23;20178;-88
2022/12/15 14:15:52;;;;;;;78.87;31.20;;;;;;;;;;6213439;22;20159;-91
2022/12/15 14:19:12;;;;;;;84.90;33.73;;;;;;;;;;6214924;22;20187;-91
2022/12/15 14:22:23;;;;;;;80.37;32.47;;;;;;;;;;6214933;23;20213;-88
2022/12/15 14:25:40;;;;;;;79.07;31.07;;;;;;;;;;6215035;23;20167;-88
2022/12/15 14:28:47;;;;;;;73.50;30.80;;;;;;;;;;6214288;22;20299;-88
2022/12/15 14:31:54;;;;;;;75.87;30.57;;;;;;;;;;6214654;22;20174;-88
2022/12/15 14:35:02;;;;;;;81.67;32.47;;;;;;;;;;6217800;23;20239;-89
2022/12/15 14:38:20;;;;;;;78.80;31.73;;;;;;;;;;6216759;23;20167;-91
2022/12/15 14:41:29;;;;;;;80.87;31.33;;;;;;;;;;6213356;23;20183;-88
2022/12/15 14:48:08;;;;;;;82.80;32.33;;;;;;;;;;6213705;23;20186;-90
2022/12/15 14:51:16;;;;;;;80.93;32.53;;;;;;;;;;6212580;23;20174;-91
2022/12/15 14:54:32;;;;;;;77.83;30.73;;;;;;;;;;6210516;23;20182;-88
2022/12/15 14:57:40;;;;;;;81.17;32.90;;;;;;;;;;6210973;22;20155;-89
2022/12/15 15:00:49;;;;;;;77.83;31.20;;;;;;;;;;6213086;23;20167;-89
2022/12/15 15:04:04;;;;;;;81.53;31.57;;;;;;;;;;6214141;23;20163;-92
2022/12/15 15:07:17;;;;;;;75.17;30.70;;;;;;;;;;6214203;23;20238;-93
2022/12/15 15:10:25;;;;;;;86.83;32.50;;;;;;;;;;6214012;22;20203;-90
2022/12/15 15:13:37;;;;;;;83.37;32.53;;;;;;;;;;6213842;22;20226;-91
2022/12/15 15:16:42;;;;;;;97.00;35.20;;;;;;;;;;6213103;23;20164;-91
2022/12/15 15:19:50;;;;;;;77.70;32.17;;;;;;;;;;6213766;23;20166;-91
2022/12/15 15:23:11;;;;;;;85.43;33.67;;;;;;;;;;6212393;23;20168;-92
2022/12/15 15:26:17;;;;;;;85.17;33.70;;;;;;;;;;6211823;22;20237;-90
2022/12/15 15:29:34;;;;;;;79.30;33.00;;;;;;;;;;6213295;22;20159;-88
2022/12/15 15:32:49;;;;;;;84.80;33.03;;;;;;;;;;6214293;23;20615;-89
2022/12/15 15:35:57;;;;;;;80.97;31.17;;;;;;;;;;6214215;23;20172;-89
2022/12/15 15:39:05;;;;;;;73.13;31.23;;;;;;;;;;6213117;22;20195;-88
2022/12/15 15:42:12;;;;;;;84.67;32.60;;;;;;;;;;6213394;22;20175;-90
2022/12/15 15:45:18;;;;;;;82.07;34.40;;;;;;;;;;6214238;23;20171;-89
2022/12/15 15:48:26;;;;;;;89.20;35.37;;;;;;;;;;6217111;23;20487;-90
2022/12/15 15:51:32;;;;;;;89.53;37.37;;;;;;;;;;6216454;23;20162;-89
2022/12/15 15:54:41;;;;;;;80.23;32.07;;;;;;;;;;6216109;23;20207;-90
2022/12/15 15:57:48;;;;;;;80.50;31.33;;;;;;;;;;6218304;22;20275;-88
2022/12/15 16:00:54;;;;;;;79.73;33.93;;;;;;;;;;6217505;22;20626;-91
2022/12/15 16:03:59;;;;;;;94.67;45.83;;;;;;;;;;6215764;23;20698;-88
2022/12/15 16:07:05;;;;;;;81.13;34.70;;;;;;;;;;6218867;23;20242;-88
2022/12/15 16:10:19;;;;;;;88.30;34.47;;;;;;;;;;6219249;23;20166;-91
2022/12/15 16:13:26;;;;;;;84.03;32.77;;;;;;;;;;6216953;22;20195;-90
2022/12/15 16:16:33;;;;;;;83.93;32.87;;;;;;;;;;6219534;23;20176;-89
2022/12/15 16:19:38;;;;;;;82.73;33.27;;;;;;;;;;6216918;23;20167;-86
2022/12/15 16:22:45;;;;;;;94.60;35.97;;;;;;;;;;6217277;23;20171;-88
2022/12/15 16:25:53;;;;;;;88.57;33.83;;;;;;;;;;6216793;23;20179;-90
2022/12/15 16:28:58;;;;;;;93.73;36.33;;;;;;;;;;6216824;23;20171;-89
2022/12/15 16:32:03;;;;;;;90.70;38.27;;;;;;;;;;6215143;23;20245;-89
2022/12/15 16:35:09;;;;;;;85.80;33.67;;;;;;;;;;6213398;23;20190;-90
2022/12/15 16:38:17;;;;;;;79.30;32.13;;;;;;;;;;6215855;23;20241;-89
2022/12/15 16:41:28;;;;;;;83.07;31.60;;;;;;;;;;6219724;22;20205;-89
2022/12/15 16:44:33;;;;;;;84.97;33.90;;;;;;;;;;6221706;22;20203;-87
2022/12/15 16:47:39;;;;;;;82.33;33.50;;;;;;;;;;6214793;22;20184;-89
2022/12/15 16:50:45;;;;;;;91.47;36.47;;;;;;;;;;6216008;23;20166;-89
2022/12/15 16:53:52;;;;;;;93.37;37.13;;;;;;;;;;6215187;23;20238;-89
2022/12/15 16:56:59;;;;;;;94.13;36.30;;;;;;;;;;6216696;23;20175;-90
2022/12/15 17:00:14;;;;;;;88.10;32.87;;;;;;;;;;6214927;22;20183;-90
2022/12/15 17:06:38;;;;;;;81.00;33.03;;;;;;;;;;6215997;23;20211;-88
2022/12/15 17:09:44;;;;;;;86.67;33.13;;;;;;;;;;6214463;23;20167;-88
2022/12/15 17:12:52;;;;;;;78.40;31.07;;;;;;;;;;6231693;23;20368;-89
2022/12/15 17:16:01;;;;;;;76.73;32.07;;;;;;;;;;6214113;23;20236;-89
2022/12/15 17:19:06;;;;;;;81.17;32.47;;;;;;;;;;6214108;23;20180;-92
2022/12/15 17:22:12;;;;;;;85.30;32.73;;;;;;;;;;6230170;22;20162;-90
2022/12/15 17:25:20;;;;;;;82.20;32.30;;;;;;;;;;6213650;23;20170;-89
2022/12/15 17:28:28;;;;;;;80.80;32.20;;;;;;;;;;6213557;23;20245;-90
2022/12/15 17:31:34;;;;;;;80.27;31.63;;;;;;;;;;6212692;23;20218;-88
2022/12/15 17:34:38;;;;;;;95.07;36.63;;;;;;;;;;6211168;23;20190;-90
2022/12/15 17:37:44;;;;;;;90.77;34.00;;;;;;;;;;6212827;23;20177;-88
2022/12/15 17:40:50;;;;;;;84.33;32.10;;;;;;;;;;6210343;23;20171;-91
2022/12/15 17:43:58;;;;;;;79.13;32.23;;;;;;;;;;6210213;22;20148;-90
2022/12/15 17:47:04;;;;;;;83.77;31.20;;;;;;;;;;6211818;22;20162;-88
2022/12/15 17:50:10;;;;;;;81.50;33.57;;;;;;;;;;6212538;23;20232;-91
2022/12/15 17:53:15;;;;;;;84.40;32.97;;;;;;;;;;6212702;23;20188;-89
2022/12/15 17:56:20;;;;;;;83.67;31.60;;;;;;;;;;6212677;23;20162;-91
2022/12/15 17:59:27;;;;;;;81.33;32.13;;;;;;;;;;6210849;23;20243;-90
2022/12/15 18:02:32;;;;;;;89.73;36.40;;;;;;;;;;6212703;23;20191;-89
2022/12/15 18:05:38;;;;;;;92.60;36.47;;;;;;;;;;6215312;22;20195;-89
2022/12/15 18:08:43;;;;;;;92.27;34.80;;;;;;;;;;6214032;23;20220;-87
2022/12/15 18:11:49;;;;;;;88.53;34.83;;;;;;;;;;6214453;23;20159;-89
2022/12/15 18:14:56;;;;;;;95.47;38.03;;;;;;;;;;6212014;22;20195;-90
2022/12/15 18:18:01;;;;;;;98.17;37.40;;;;;;;;;;6214360;22;20176;-91
2022/12/15 18:21:14;;;;;;;89.77;35.93;;;;;;;;;;6213865;23;20166;-89
2022/12/15 18:24:20;;;;;;;102.57;36.33;;;;;;;;;;6215874;23;20214;-89
2022/12/15 18:27:26;;;;;;;99.63;35.97;;;;;;;;;;6213451;23;20174;-90
2022/12/15 18:30:33;;;;;;;88.87;34.67;;;;;;;;;;6212437;22;20167;-89
2022/12/15 18:33:38;;;;;;;81.00;31.87;;;;;;;;;;6212755;22;20191;-89
2022/12/15 18:36:43;;;;;;;89.53;33.93;;;;;;;;;;6214095;22;20233;-91
2022/12/15 18:39:49;;;;;;;93.97;35.13;;;;;;;;;;6214159;23;20622;-92
2022/12/15 18:42:54;;;;;;;94.23;35.97;;;;;;;;;;6214739;23;20172;-89
2022/12/15 18:46:08;;;;;;;90.57;35.67;;;;;;;;;;6214774;22;20191;-89
2022/12/15 18:49:15;;;;;;;91.63;34.47;;;;;;;;;;6212676;22;20166;-91
2022/12/15 18:52:21;;;;;;;88.53;35.60;;;;;;;;;;6213533;23;20214;-91
2022/12/15 18:55:27;;;;;;;93.87;33.43;;;;;;;;;;6213595;23;20219;-90
2022/12/15 18:58:35;;;;;;;87.60;34.53;;;;;;;;;;6214675;23;20708;-89
2022/12/15 19:01:42;;;;;;;90.43;36.93;;;;;;;;;;6214573;22;20158;-90
2022/12/15 19:04:47;;;;;;;88.50;35.10;;;;;;;;;;6214990;22;20163;-90
2022/12/15 19:07:53;;;;;;;91.17;34.87;;;;;;;;;;6215565;23;20207;-92
2022/12/15 19:11:01;;;;;;;92.10;34.00;;;;;;;;;;6213630;23;20210;-90
2022/12/15 19:14:38;;;;;;;147.37;43.13;;;;;;;;;;6214844;23;20199;-89
2022/12/15 19:24:54;;;;;;;78.03;28.87;;;;;;;;;;6213673;23;20218;-90
2022/12/15 19:28:00;;;;;;;91.97;35.17;;;;;;;;;;6211400;23;20191;-89
2022/12/15 19:31:06;;;;;;;79.87;31.40;;;;;;;;;;6213640;22;20167;-87
2022/12/15 19:34:13;;;;;;;75.20;30.83;;;;;;;;;;6212705;23;20194;-88
2022/12/15 19:37:23;;;;;;;83.00;31.70;;;;;;;;;;6213476;23;20167;-90
2022/12/15 19:40:32;;;;;;;70.53;27.03;;;;;;;;;;6210649;23;20163;-89
2022/12/15 19:43:39;;;;;;;64.80;26.17;;;;;;;;;;6213077;23;20175;-91
2022/12/15 19:46:45;;;;;;;59.37;22.97;;;;;;;;;;6211797;23;20167;-91
2022/12/15 19:49:53;;;;;;;65.50;24.93;;;;;;;;;;6214645;23;20175;-90
2022/12/15 19:53:00;;;;;;;56.40;23.20;;;;;;;;;;6217512;23;20170;-91
2022/12/15 19:56:06;;;;;;;60.40;22.03;;;;;;;;;;6219033;22;20242;-88
2022/12/15 19:59:19;;;;;;;78.70;28.00;;;;;;;;;;6218918;23;20194;-89
2022/12/15 20:02:25;;;;;;;71.13;26.43;;;;;;;;;;6218509;23;20187;-89
2022/12/15 20:05:35;;;;;;;73.97;25.23;;;;;;;;;;6214032;23;20175;-89
2022/12/15 20:08:42;;;;;;;66.40;24.60;;;;;;;;;;6214417;23;20183;-88
2022/12/15 20:11:47;;;;;;;71.07;26.77;;;;;;;;;;6215311;23;20166;-91
2022/12/15 20:14:52;;;;;;;75.43;28.40;;;;;;;;;;6213627;23;20198;-91
2022/12/15 20:17:59;;;;;;;72.47;28.50;;;;;;;;;;6214247;23;20159;-89
2022/12/15 20:21:07;;;;;;;80.33;29.03;;;;;;;;;;6216617;23;20163;-90
2022/12/15 20:24:14;;;;;;;69.47;26.43;;;;;;;;;;6215997;23;20171;-88
2022/12/15 20:27:20;;;;;;;66.80;26.73;;;;;;;;;;6215583;23;20220;-89
2022/12/15 20:30:28;;;;;;;74.90;28.53;;;;;;;;;;6214501;23;20178;-93
2022/12/15 20:33:33;;;;;;;69.37;28.03;;;;;;;;;;6214122;23;20191;-92
2022/12/15 20:36:41;;;;;;;57.33;22.97;;;;;;;;;;6214684;23;20182;-90
2022/12/15 20:39:46;;;;;;;57.97;22.30;;;;;;;;;;6213527;23;20194;-89
2022/12/15 20:42:56;;;;;;;55.47;22.27;;;;;;;;;;6209120;23;20242;-89
2022/12/15 20:46:07;;;;;;;52.30;21.73;;;;;;;;;;6212831;23;20155;-91
2022/12/15 20:49:17;;;;;;;57.43;23.17;;;;;;;;;;6207034;23;20185;-88
2022/12/15 20:52:26;;;;;;;57.43;22.97;;;;;;;;;;6216281;23;20211;-89
2022/12/15 20:55:31;;;;;;;58.33;23.33;;;;;;;;;;6214325;23;20521;-89
2022/12/15 20:58:36;;;;;;;59.97;24.27;;;;;;;;;;6215328;23;20214;-91
2022/12/15 21:01:43;;;;;;;62.83;24.97;;;;;;;;;;6213748;23;20167;-88
2022/12/15 21:04:49;;;;;;;62.27;24.83;;;;;;;;;;6214714;22;20186;-89
2022/12/15 21:07:56;;;;;;;61.10;24.97;;;;;;;;;;6231538;22;20228;-91